Time;durP1;ratioP1;P1;durP2;ratioP2;P2;SDS_P1;SDS_P2;PMS_P1;PMS_P2;Temp;Humidity;BMP_temperature;BMP_pressure;BME280_temperature;BME280_humidity;BME280_pressure;Samples;Min_cycle;Max_cycle;Signal;HPM_P1;HPM_P2
2021/06/10 00:01:10;;;;;;;;;25.25;25.25;;;;;18.86;83.52;100529.47;5054581;28;8847;-79
2021/06/10 00:04:06;;;;;;;;;28.00;25.50;;;;;19.24;84.52;100518.81;5054427;28;8832;-78
2021/06/10 00:07:03;;;;;;;;;29.50;29.50;;;;;19.02;82.80;100517.94;5054276;28;8828;-78
2021/06/10 00:09:59;;;;;;;;;20.50;20.50;;;;;19.14;82.77;100517.56;5042911;28;8852;-78
2021/06/10 00:12:55;;;;;;;;;27.00;27.00;;;;;19.05;82.49;100519.16;5056101;28;8837;-78
2021/06/10 00:15:50;;;;;;;;;21.25;19.50;;;;;18.95;82.91;100512.28;5075795;28;8830;-78
2021/06/10 00:18:51;;;;;;;;;24.75;24.75;;;;;19.01;82.62;100505.09;5060770;28;8838;-78
2021/06/10 00:21:47;;;;;;;;;25.75;25.50;;;;;19.00;82.24;100505.50;5062278;28;8817;-79
2021/06/10 00:24:42;;;;;;;;;24.75;24.75;;;;;19.05;81.82;100507.94;5064563;28;8844;-78
2021/06/10 00:27:38;;;;;;;;;26.00;26.00;;;;;18.94;82.01;100515.47;5073856;28;8838;-78
2021/06/10 00:30:34;;;;;;;;;26.25;26.00;;;;;18.86;82.29;100511.81;5073902;28;8923;-78
2021/06/10 00:33:30;;;;;;;;;31.75;30.75;;;;;18.71;82.40;100515.72;5073914;28;8826;-78
2021/06/10 00:36:25;;;;;;;;;29.00;28.25;;;;;18.37;83.88;100518.66;5071850;28;8828;-78
2021/06/10 00:39:21;;;;;;;;;31.00;31.00;;;;;18.67;84.85;100507.31;5072979;28;8879;-78
2021/06/10 00:42:17;;;;;;;;;26.33;26.33;;;;;18.67;82.89;100509.31;5070900;28;8994;-78
2021/06/10 00:45:15;;;;;;;;;28.33;27.67;;;;;18.79;81.94;100504.19;5054744;28;8924;-77
2021/06/10 00:47:44;;;;;;;;;29.25;29.25;;;;;18.83;81.84;100501.41;5055957;28;9035;-78
2021/06/10 00:50:44;;;;;;;;;30.50;30.00;;;;;18.72;81.69;100498.56;5056889;28;8852;-78
2021/06/10 00:53:39;;;;;;;;;28.50;28.00;;;;;18.46;82.75;100491.13;5075843;28;8851;-79
2021/06/10 00:56:35;;;;;;;;;29.33;29.33;;;;;18.45;83.33;100494.31;5072441;28;8852;-79
2021/06/10 00:59:31;;;;;;;;;29.67;29.00;;;;;18.44;83.12;100498.31;5074025;28;8904;-79
2021/06/10 01:02:27;;;;;;;;;34.67;30.67;;;;;18.46;82.17;100499.53;5073828;28;9006;-79
2021/06/10 01:05:23;;;;;;;;;33.75;32.75;;;;;18.39;82.85;100496.69;5073994;28;9673;-79
2021/06/10 01:08:23;;;;;;;;;39.33;34.67;;;;;18.61;83.22;100492.84;5076097;28;8840;-78
2021/06/10 01:11:40;;;;;;;;;60.50;49.00;;;;;18.45;82.88;100489.53;5073208;28;9221;-79
2021/06/10 01:15:03;;;;;;;;;59.50;48.00;;;;;18.53;83.37;100493.97;5073014;28;10465;-78
2021/06/10 01:17:35;;;;;;;;;43.33;37.00;;;;;18.73;83.57;100499.34;5105810;28;10117;-79
2021/06/10 01:20:31;;;;;;;;;44.67;37.33;;;;;18.66;82.85;100504.91;5073015;28;9246;-78
2021/06/10 01:24:02;;;;;;;;;31.00;30.50;;;;;18.73;83.69;100494.56;5064611;28;10121;-79
2021/06/10 01:27:16;;;;;;;;;38.67;32.33;;;;;18.59;82.69;100503.63;5052699;28;9581;-78
2021/06/10 01:30:16;;;;;;;;;30.33;30.33;;;;;18.54;83.23;100495.59;5054329;28;8921;-79
2021/06/10 01:33:23;;;;;;;;;25.25;25.25;;;;;18.40;83.84;100503.06;5052618;28;9711;-79
2021/06/10 01:36:30;;;;;;;;;27.75;27.75;;;;;18.35;83.53;100509.84;5063228;28;8832;-78
2021/06/10 01:39:29;;;;;;;;;27.50;27.50;;;;;18.46;83.12;100499.53;5072668;28;8847;-78
2021/06/10 01:42:25;;;;;;;;;27.50;27.50;;;;;18.33;83.46;100498.25;5073196;28;8844;-78
2021/06/10 01:45:22;;;;;;;;;39.00;35.00;;;;;18.15;85.20;100506.50;5071806;28;8863;-79
2021/06/10 01:48:20;;;;;;;;;61.25;47.50;;;;;18.22;85.40;100500.94;5074621;28;9054;-78
2021/06/10 01:51:19;;;;;;;;;59.25;48.00;;;;;18.39;85.67;100501.47;5069397;28;10272;-78
2021/06/10 01:54:17;;;;;;;;;77.25;63.50;;;;;18.46;85.18;100493.94;5072634;28;10961;-78
2021/06/10 01:57:14;;;;;;;;;76.75;65.75;;;;;18.57;83.87;100503.22;5058983;28;10799;-78
2021/06/10 02:00:13;;;;;;;;;75.50;62.50;;;;;18.53;83.78;100498.78;5048386;28;10894;-78
2021/06/10 02:03:10;;;;;;;;;70.25;55.50;;;;;18.40;83.70;100503.06;5052089;28;11460;-79
2021/06/10 02:06:08;;;;;;;;;62.75;49.00;;;;;18.20;84.26;100508.94;5038797;28;10542;-79
2021/06/10 02:09:05;;;;;;;;;63.00;51.00;;;;;18.10;84.52;100509.66;5052192;28;10545;-78
2021/06/10 02:12:01;;;;;;;;;58.25;47.75;;;;;18.10;85.45;100511.66;5051886;28;10229;-78
2021/06/10 02:14:57;;;;;;;;;47.00;40.00;;;;;18.39;84.54;100510.69;5051895;28;10038;-78
2021/06/10 02:17:52;;;;;;;;;56.75;45.75;;;;;18.52;83.33;100508.38;5051954;28;9526;-78
2021/06/10 02:20:48;;;;;;;;;49.75;41.50;;;;;18.45;83.18;100509.13;5051709;28;9846;-78
2021/06/10 02:23:45;;;;;;;;;54.00;44.00;;;;;18.38;82.89;100519.47;5050666;28;9776;-79
2021/06/10 02:26:42;;;;;;;;;59.00;48.75;;;;;18.29;83.28;100519.81;5071177;28;9841;-79
2021/06/10 02:29:38;;;;;;;;;56.50;46.25;;;;;17.90;85.33;100523.06;5070944;28;10250;-79
2021/06/10 02:32:34;;;;;;;;;71.75;57.25;;;;;18.11;84.82;100528.06;5073964;28;10181;-79
2021/06/10 02:35:30;;;;;;;;;65.00;52.75;;;;;18.33;84.92;100521.44;5072631;28;10974;-79
2021/06/10 02:38:29;;;;;;;;;59.50;48.75;;;;;18.39;84.24;100532.28;5072452;28;10406;-80
2021/06/10 02:41:27;;;;;;;;;62.00;48.75;;;;;18.46;83.69;100524.72;5072434;28;10418;-79
2021/06/10 02:44:26;;;;;;;;;60.50;49.50;;;;;18.56;83.43;100526.03;5072441;28;10285;-78
2021/06/10 02:47:25;;;;;;;;;63.75;51.00;;;;;18.48;84.27;100527.13;5070864;28;10201;-78
2021/06/10 02:50:22;;;;;;;;;64.00;50.50;;;;;18.46;84.40;100521.13;5069106;28;10999;-78
2021/06/10 02:52:50;;;;;;;;;57.50;46.75;;;;;18.59;84.20;100520.44;5054907;28;10201;-78
2021/06/10 02:55:50;;;;;;;;;51.00;43.00;;;;;18.80;85.11;100527.41;5072057;28;10039;-78
2021/06/10 02:58:48;;;;;;;;;56.00;45.75;;;;;18.92;84.05;100521.47;5072291;28;9882;-79
2021/06/10 03:01:45;;;;;;;;;60.25;47.75;;;;;18.91;83.31;100528.28;5072099;28;9598;-79
2021/06/10 03:04:42;;;;;;;;;52.25;45.00;;;;;18.87;83.67;100531.06;5072663;28;10109;-78
2021/06/10 03:07:38;;;;;;;;;51.00;43.33;;;;;18.84;84.11;100523.41;5070756;28;9885;-78
2021/06/10 03:10:34;;;;;;;;;48.33;40.33;;;;;18.94;83.32;100535.06;5072199;28;9554;-78
2021/06/10 03:13:32;;;;;;;;;51.25;44.25;;;;;18.87;84.01;100535.88;5070754;28;9317;-79
2021/06/10 03:16:28;;;;;;;;;54.25;46.25;;;;;18.94;83.98;100524.69;5072083;28;9546;-78
2021/06/10 03:19:24;;;;;;;;;59.25;48.50;;;;;18.93;83.77;100528.66;5096141;28;9729;-78
2021/06/10 03:22:20;;;;;;;;;61.75;49.00;;;;;18.84;84.11;100533.81;5070461;28;9978;-78
2021/06/10 03:25:16;;;;;;;;;61.75;49.50;;;;;18.63;84.80;100531.66;5072189;28;9956;-77
2021/06/10 03:28:13;;;;;;;;;64.50;49.75;;;;;18.82;84.54;100533.41;5072056;28;9947;-79
2021/06/10 03:31:08;;;;;;;;;52.25;44.00;;;;;18.42;85.70;100535.13;5073329;28;9928;-79
2021/06/10 03:34:05;;;;;;;;;56.00;44.00;;;;;18.44;85.45;100534.72;5070317;28;10022;-79
2021/06/10 03:37:02;;;;;;;;;61.25;48.00;;;;;18.25;86.95;100528.19;5071659;28;9870;-80
2021/06/10 03:40:00;;;;;;;;;59.25;47.75;;;;;18.18;87.48;100533.72;5073152;28;10096;-80
2021/06/10 03:42:56;;;;;;;;;57.50;47.50;;;;;18.42;87.32;100523.91;5077201;28;10102;-79
2021/06/10 03:45:39;;;;;;;;;55.75;46.75;;;;;18.41;87.59;100525.13;5075987;28;10093;-79
2021/06/10 03:48:38;;;;;;;;;55.50;46.50;;;;;18.47;87.80;100523.53;5077030;28;9998;-79
2021/06/10 03:51:34;;;;;;;;;56.75;46.50;;;;;18.62;87.18;100519.66;5073415;28;9952;-78
2021/06/10 03:54:30;;;;;;;;;57.50;46.25;;;;;18.82;86.53;100520.22;5099281;28;9935;-79
2021/06/10 03:57:25;;;;;;;;;52.00;43.75;;;;;19.04;86.35;100517.53;5075972;28;9880;-78
2021/06/10 04:00:22;;;;;;;;;44.67;38.67;;;;;19.64;85.78;100522.63;5076970;28;9695;-78
2021/06/10 04:03:18;;;;;;;;;40.33;36.00;;;;;19.66;83.62;100517.41;5073600;28;9417;-78
2021/06/10 04:06:15;;;;;;;;;50.00;41.00;;;;;19.73;83.48;100523.03;5077206;28;9150;-78
2021/06/10 04:09:11;;;;;;;;;48.00;40.67;;;;;19.88;82.78;100519.06;5075787;28;9240;-78
2021/06/10 04:12:07;;;;;;;;;48.00;41.00;;;;;19.99;82.84;100522.66;5073078;28;9303;-78
2021/06/10 04:14:35;;;;;;;;;51.33;43.33;;;;;20.42;82.12;100527.50;5052297;28;9233;-79
2021/06/10 04:17:31;;;;;;;;;46.00;38.67;;;;;20.87;80.78;100527.88;5041350;28;9112;-78
2021/06/10 04:20:28;;;;;;;;;55.00;45.00;;;;;20.80;80.02;100521.06;5042836;28;8939;-78
2021/06/10 04:22:57;;;;;;;;;56.33;46.33;;;;;;;;5075473;28;9537;-78
2021/06/10 04:25:53;;;;;;;;;49.67;40.67;;;;;20.95;79.95;100523.84;5072524;28;9310;-78
2021/06/10 04:28:49;;;;;;;;;62.25;51.00;;;;;21.20;78.72;100526.59;5079367;28;9015;-78
2021/06/10 04:31:44;;;;;;;;;72.00;60.25;;;;;21.19;78.45;100530.59;5073995;28;9868;-78
2021/06/10 04:34:40;;;;;;;;;58.67;46.33;;;;;21.24;77.87;100541.41;5053152;28;10507;-78
2021/06/10 04:37:35;;;;;;;;;72.00;59.25;;;;;21.63;76.59;100541.31;5058808;28;9178;-77
2021/06/10 04:40:31;;;;;;;;;65.00;53.50;;;;;21.65;75.88;100541.69;5058228;28;9531;-78
2021/06/10 04:43:20;;;;;;;;;75.50;62.75;;;;;21.64;75.85;100537.28;5072792;28;9858;-78
2021/06/10 04:46:16;;;;;;;;;75.50;67.25;;;;;21.44;76.49;100534.13;5076395;28;11423;-79
2021/06/10 04:49:12;;;;;;;;;128.25;114.25;;;;;21.50;76.44;100538.13;5053278;28;10746;-78
2021/06/10 04:52:08;;;;;;;;;148.50;129.50;;;;;21.64;76.14;100540.88;5070918;28;11612;-78
2021/06/10 04:55:04;;;;;;;;;123.25;114.00;;;;;21.58;76.19;100542.50;5060838;28;11626;-78
2021/06/10 04:58:00;;;;;;;;;71.00;59.75;;;;;21.89;75.43;100539.94;5054667;28;11623;-80
2021/06/10 05:00:56;;;;;;;;;157.33;145.33;;;;;22.14;74.47;100545.41;5070800;28;10731;-78
2021/06/10 05:03:51;;;;;;;;;110.00;100.00;;;;;22.17;74.13;100551.03;5097844;28;8847;-78
2021/06/10 05:06:49;;;;;;;;;193.00;174.75;;;;;22.34;73.28;100546.47;5097212;28;11660;-78
2021/06/10 05:09:44;;;;;;;;;173.00;161.33;;;;;22.41;72.53;100543.59;5068280;28;8988;-77
2021/06/10 05:12:40;;;;;;;;;220.25;210.50;;;;;22.48;72.74;100549.19;5053508;28;8846;-77
2021/06/10 05:15:39;;;;;;;;;213.00;198.00;;;;;22.76;71.78;100547.31;5053234;28;8963;-79
2021/06/10 05:18:09;;;;;;;;;329.50;295.00;;;;;22.80;71.69;100548.09;5072914;28;8861;-79
2021/06/10 05:21:04;;;;;;;;;323.25;287.75;;;;;22.87;70.79;100545.22;5060269;28;8848;-78
2021/06/10 05:24:00;;;;;;;;;257.50;230.75;;;;;23.09;69.62;100545.00;5056029;28;8818;-78
2021/06/10 05:26:56;;;;;;;;;352.25;310.00;;;;;23.06;66.84;100552.25;5072989;28;8838;-78
2021/06/10 05:29:51;;;;;;;;;346.75;300.25;;;;;23.17;67.43;100544.50;5056216;28;8825;-68
2021/06/10 05:32:47;;;;;;;;;282.25;255.25;;;;;23.32;66.51;100545.13;5052857;28;9549;-69
2021/06/10 05:35:43;;;;;;;;;239.00;210.75;;;;;23.24;67.09;100554.91;5040348;28;8854;-68
2021/06/10 05:38:38;;;;;;;;;240.75;221.50;;;;;23.35;66.89;100549.91;5052596;28;8835;-69
2021/06/10 05:41:06;;;;;;;;;178.67;167.67;;;;;23.29;65.48;100540.31;5053442;28;8971;-70
2021/06/10 05:43:34;;;;;;;;;183.67;157.00;;;;;23.40;65.84;100541.00;5053642;28;8832;-67
2021/06/10 05:46:30;;;;;;;;;190.33;173.00;;;;;23.61;65.27;100541.94;5042049;28;8962;-70
2021/06/10 05:49:25;;;;;;;;;197.00;172.33;;;;;23.83;64.81;100551.72;5060237;28;8822;-67
2021/06/10 05:52:25;;;;;;;;;103.00;97.00;;;;;24.00;63.01;100544.22;5071635;28;8901;-67
2021/06/10 05:55:21;;;;;;;;;137.75;126.75;;;;;24.10;61.73;100557.41;5071679;28;11571;-69
2021/06/10 05:58:17;;;;;;;;;135.75;122.25;;;;;23.98;64.48;100543.84;5068962;28;11581;-68
2021/06/10 06:01:12;;;;;;;;;99.50;99.50;;;;;24.18;61.60;100543.97;5071625;28;11619;-69
2021/06/10 06:04:08;;;;;;;;;107.00;99.75;;;;;24.26;61.75;100545.44;5068411;28;11584;-70
2021/06/10 06:07:04;;;;;;;;;102.00;96.25;;;;;24.45;61.14;100541.13;5032023;28;11615;-67
2021/06/10 06:09:51;;;;;;;;;110.50;101.00;;;;;24.19;61.18;100539.91;5033096;28;11577;-68
2021/06/10 06:12:33;;;;;;;;;110.50;102.75;;;;;24.52;60.59;100544.63;5064549;28;11588;-70
2021/06/10 06:15:30;;;;;;;;;118.50;109.50;;;;;24.40;62.41;100543.22;5071844;28;11589;-68
2021/06/10 06:18:25;;;;;;;;;108.50;100.50;;;;;24.73;61.08;100546.28;5074694;28;11768;-69
2021/06/10 06:21:21;;;;;;;;;103.75;92.75;;;;;24.73;60.93;100542.66;5070968;28;11662;-69
2021/06/10 06:24:16;;;;;;;;;101.25;95.00;;;;;24.67;60.73;100548.00;5069671;28;11521;-69
2021/06/10 06:27:12;;;;;;;;;70.25;59.50;;;;;24.72;61.11;100546.72;5051965;28;11096;-69
2021/06/10 06:30:12;;;;;;;;;82.25;73.50;;;;;24.88;62.22;100550.44;5053763;28;10144;-71
2021/06/10 06:33:08;;;;;;;;;77.75;68.50;;;;;24.58;62.53;100542.91;5051401;28;9816;-70
2021/06/10 06:36:04;;;;;;;;;60.25;48.75;;;;;24.34;62.39;100553.41;5052938;28;9462;-68
2021/06/10 06:38:47;;;;;;;;;56.50;44.75;;;;;24.50;62.53;100541.44;5072420;28;8857;-69
2021/06/10 06:41:43;;;;;;;;;61.50;50.00;;;;;24.76;60.81;100548.22;5072958;28;8822;-69
2021/06/10 06:44:38;;;;;;;;;61.25;49.00;;;;;24.61;60.86;100544.88;5071535;28;8992;-69
2021/06/10 06:47:34;;;;;;;;;71.50;58.50;;;;;24.85;59.76;100556.19;5071586;28;8855;-69
2021/06/10 06:50:30;;;;;;;;;72.00;63.00;;;;;25.00;58.37;100542.53;5053127;28;8830;-68
2021/06/10 06:53:29;;;;;;;;;76.25;66.00;;;;;25.18;58.16;100549.50;5060058;28;9381;-69
2021/06/10 06:56:25;;;;;;;;;69.25;56.25;;;;;25.15;58.20;100550.38;5056635;28;9725;-69
2021/06/10 06:59:21;;;;;;;;;69.33;57.00;;;;;25.36;57.03;100543.47;5056933;28;8899;-70
2021/06/10 07:02:16;;;;;;;;;62.75;49.50;;;;;25.32;57.89;100544.78;5066526;28;9132;-69
2021/06/10 07:05:12;;;;;;;;;70.75;59.25;;;;;25.38;57.85;100546.69;5059162;28;8847;-70
2021/06/10 07:07:40;;;;;;;;;72.67;62.33;;;;;25.82;56.74;100549.41;5051011;28;8859;-69
2021/06/10 07:10:23;;;;;;;;;53.50;42.75;;;;;25.81;54.53;100554.25;5067822;28;9048;-68
2021/06/10 07:13:24;;;;;;;;;49.25;41.75;;;;;25.90;55.07;100556.50;5065042;28;9596;-69
2021/06/10 07:16:20;;;;;;;;;37.20;33.80;;;;;25.99;53.47;100551.00;5055351;28;8840;-68
2021/06/10 07:19:16;;;;;;;;;31.20;30.20;;;;;26.13;52.50;100549.88;5057076;28;8836;-71
2021/06/10 07:22:11;;;;;;;;;32.40;29.40;;;;;26.47;51.19;100549.50;5056143;28;8920;-70
2021/06/10 07:25:09;;;;;;;;;25.80;25.80;;;;;26.31;50.70;100551.06;5056404;28;8845;-69
2021/06/10 07:28:05;;;;;;;;;16.20;15.80;;;;;26.41;52.74;100549.22;5056861;28;8925;-68
2021/06/10 07:31:00;;;;;;;;;14.00;14.00;;;;;26.04;51.42;100548.47;5057184;28;8862;-69
2021/06/10 07:33:56;;;;;;;;;21.20;21.20;;;;;25.94;51.44;100548.72;5047122;28;8848;-69
2021/06/10 07:36:25;;;;;;;;;19.20;19.20;;;;;25.90;51.73;100545.16;5031490;28;8863;-68
2021/06/10 07:38:54;;;;;;;;;38.75;34.75;;;;;25.13;55.29;100547.16;5050406;28;8925;-67
2021/06/10 07:41:22;;;;;;;;;39.00;34.60;;;;;25.24;55.86;100552.63;5056568;28;8832;-68
2021/06/10 07:44:21;;;;;;;;;30.20;28.60;;;;;25.06;57.22;100552.94;5039308;28;8886;-68
2021/06/10 07:46:57;;;;;;;;;33.40;31.40;;;;;25.01;57.56;100549.81;5053095;28;8852;-70
2021/06/10 07:49:25;;;;;;;;;29.40;29.20;;;;;25.11;58.01;100554.50;5059758;28;8865;-69
2021/06/10 07:52:21;;;;;;;;;22.80;22.80;;;;;25.12;57.72;100556.88;5051941;28;8843;-69
2021/06/10 07:55:11;;;;;;;;;26.80;22.40;;;;;25.35;58.05;100555.22;5051851;28;8864;-71
2021/06/10 07:57:39;;;;;;;;;14.60;14.60;;;;;24.77;61.11;100551.88;5066926;28;9719;-70
2021/06/10 08:00:08;;;;;;;;;14.80;14.80;;;;;24.89;61.09;100548.41;5055283;28;8848;-69
2021/06/10 08:02:57;;;;;;;;;16.80;16.80;;;;;24.72;61.32;100550.34;5053824;28;8849;-69
2021/06/10 08:05:26;;;;;;;;;21.20;21.20;;;;;24.38;60.87;100548.50;5049560;28;8836;-67
2021/06/10 08:08:23;;;;;;;;;16.60;15.40;;;;;24.48;62.05;100543.91;5054348;28;8828;-68
2021/06/10 08:10:53;;;;;;;;;19.40;18.00;;;;;25.10;60.93;100542.38;5055418;28;8856;-67
2021/06/10 08:13:22;;;;;;;;;16.20;16.20;;;;;25.50;59.75;100545.19;5052802;28;8840;-68
2021/06/10 08:15:51;;;;;;;;;21.00;21.00;;;;;25.35;59.89;100553.19;5054268;28;9026;-72
2021/06/10 08:18:46;;;;;;;;;19.20;19.20;;;;;25.56;59.00;100548.31;5056697;28;8843;-78
2021/06/10 08:21:42;;;;;;;;;18.60;18.60;;;;;26.23;58.38;100535.47;5041589;28;9699;-78
2021/06/10 08:24:37;;;;;;;;;21.80;20.60;;;;;25.69;57.67;100541.56;5042215;28;8947;-79
2021/06/10 08:27:27;;;;;;;;;16.00;16.00;;;;;26.06;56.42;100540.31;5040937;28;8859;-79
2021/06/10 08:30:24;;;;;;;;;17.20;17.20;;;;;26.38;55.23;100550.09;5040463;28;8851;-78
2021/06/10 08:33:20;;;;;;;;;18.60;18.60;;;;;26.88;53.82;100558.13;5041369;28;8851;-78
2021/06/10 08:36:18;;;;;;;;;14.80;14.80;;;;;26.57;55.36;100556.94;5051031;28;8880;-78
2021/06/10 08:39:16;;;;;;;;;14.00;14.00;;;;;26.92;54.26;100548.75;5076076;28;8814;-78
2021/06/10 08:42:12;;;;;;;;;12.20;12.20;;;;;25.97;55.32;100542.16;5075823;28;8842;-79
2021/06/10 08:45:12;;;;;;;;;13.00;13.00;;;;;25.89;56.21;100537.91;5074775;28;8842;-79
2021/06/10 08:48:08;;;;;;;;;12.00;12.00;;;;;25.87;56.83;100538.34;5074629;28;8849;-80
2021/06/10 08:50:37;;;;;;;;;11.20;11.20;;;;;25.65;57.96;100559.84;5075217;28;8877;-79
2021/06/10 08:53:32;;;;;;;;;11.20;11.20;;;;;24.96;64.47;100560.38;5060189;28;8868;-79
2021/06/10 08:56:30;;;;;;;;;11.20;11.00;;;;;23.87;72.32;100558.13;5074420;28;8822;-80
2021/06/10 08:59:26;;;;;;;;;14.60;14.60;;;;;23.66;72.71;100547.13;5074130;28;8838;-80
2021/06/10 09:02:22;;;;;;;;;15.20;14.80;;;;;23.73;73.21;100544.22;5074920;28;8846;-82
2021/06/10 09:05:19;;;;;;;;;14.60;14.60;;;;;23.21;75.06;100555.72;5060572;28;8833;-81
2021/06/10 09:08:20;;;;;;;;;12.80;12.80;;;;;22.96;75.87;100559.63;5074988;28;8848;-80
2021/06/10 09:11:18;;;;;;;;;8.00;6.60;;;;;23.12;72.78;100553.41;5069757;28;8887;-81
2021/06/10 09:14:13;;;;;;;;;14.20;14.20;;;;;23.18;71.17;100556.56;5054597;28;8844;-80
2021/06/10 09:17:09;;;;;;;;;11.80;11.80;;;;;23.30;71.11;100541.91;5052852;28;8827;-81
2021/06/10 09:19:37;;;;;;;;;8.80;8.80;;;;;23.09;73.52;100545.78;5034270;28;8872;-82
2021/06/10 09:22:36;;;;;;;;;8.60;8.60;;;;;23.15;72.88;100541.28;5050192;28;8847;-82
2021/06/10 09:25:09;;;;;;;;;8.60;8.00;;;;;23.30;72.24;100536.25;5052872;28;8848;-81
2021/06/10 09:27:58;;;;;;;;;8.60;8.60;;;;;23.32;73.66;100533.03;5033204;28;8856;-83
2021/06/10 09:30:38;;;;;;;;;9.80;9.80;;;;;23.40;73.73;100529.72;5049398;28;8871;-81
2021/06/10 09:33:37;;;;;;;;;14.60;14.60;;;;;23.63;72.89;100526.22;5055016;28;8959;-81
2021/06/10 09:36:05;;;;;;;;;10.00;10.00;;;;;23.97;75.94;100520.47;5033569;28;9644;-80
2021/06/10 09:38:33;;;;;;;;;13.40;13.40;;;;;24.36;74.44;100516.22;5048667;28;9016;-80
2021/06/10 09:41:05;;;;;;;;;10.00;10.00;;;;;24.75;71.73;100515.53;5053059;28;8832;-78
2021/06/10 09:43:47;;;;;;;;;8.80;8.80;;;;;24.90;71.89;100518.88;5050749;28;8950;-82
2021/06/10 09:47:02;;;;;;;;;13.80;13.80;;;;;25.23;69.08;100512.22;5036165;28;8844;-79
2021/06/10 09:49:29;;;;;;;;;13.20;12.60;;;;;25.40;68.95;100503.78;5051466;28;8844;-81
2021/06/10 09:52:02;;;;;;;;;14.00;12.80;;;;;25.63;64.88;100512.16;5051459;28;8840;-79
2021/06/10 09:54:41;;;;;;;;;12.80;12.80;;;;;25.90;63.68;100503.47;5019678;28;8840;-80
2021/06/10 09:57:12;;;;;;;;;8.40;8.40;;;;;26.03;55.50;100498.69;5036561;28;8867;-78
2021/06/10 09:59:53;;;;;;;;;16.20;16.20;;;;;26.20;61.36;100507.22;5052965;28;8975;-79
2021/06/10 10:02:22;;;;;;;;;10.60;10.60;;;;;26.32;63.12;100501.63;5050282;28;8881;-77
2021/06/10 10:05:08;;;;;;;;;6.60;6.60;;;;;26.50;59.95;100504.03;5034825;28;8836;-79
2021/06/10 10:08:04;;;;;;;;;5.00;5.00;;;;;26.54;57.97;100504.75;5032380;28;9555;-78
2021/06/10 10:11:04;;;;;;;;;5.40;5.40;;;;;26.59;59.97;100494.88;5045842;28;8845;-77
2021/06/10 10:14:04;;;;;;;;;5.80;5.80;;;;;26.92;59.52;100498.47;5060525;28;8824;-77
2021/06/10 10:17:00;;;;;;;;;6.00;6.00;;;;;27.13;59.32;100506.38;5038557;28;8843;-78
2021/06/10 10:19:57;;;;;;;;;6.00;6.00;;;;;27.37;55.77;100500.41;5045613;28;8848;-78
2021/06/10 10:22:54;;;;;;;;;4.20;4.20;;;;;27.61;57.69;100481.84;5045249;28;8863;-77
2021/06/10 10:25:57;;;;;;;;;3.60;3.60;;;;;27.76;52.74;100484.25;5039002;28;8912;-75
2021/06/10 10:28:53;;;;;;;;;6.00;6.00;;;;;27.33;55.12;100488.38;5051468;28;8858;-76
2021/06/10 10:31:50;;;;;;;;;4.20;4.20;;;;;27.04;54.72;100494.09;5051385;28;9569;-77
2021/06/10 10:34:46;;;;;;;;;5.00;5.00;;;;;26.46;56.79;100496.88;5048812;28;8820;-76
2021/06/10 10:37:41;;;;;;;;;4.40;4.40;;;;;26.32;56.51;100495.97;5051775;28;8843;-76
2021/06/10 10:40:40;;;;;;;;;4.00;4.00;;;;;26.14;55.93;100500.47;5038181;28;8835;-78
2021/06/10 10:43:38;;;;;;;;;3.20;3.20;;;;;26.34;55.22;100501.19;5050444;28;8874;-78
2021/06/10 10:46:34;;;;;;;;;5.20;4.80;;;;;26.87;55.38;100499.00;5051903;28;8858;-80
2021/06/10 10:49:42;;;;;;;;;3.40;3.40;;;;;27.12;53.15;100495.47;5051345;28;8846;-80
2021/06/10 10:52:52;;;;;;;;;5.40;5.40;;;;;27.61;54.68;100481.84;5054865;28;8861;-77
2021/06/10 10:56:04;;;;;;;;;5.00;4.40;;;;;27.88;51.84;100492.78;5057722;28;8851;-77
2021/06/10 10:59:17;;;;;;;;;3.80;3.80;;;;;28.14;53.29;100490.72;5056358;28;8826;-77
2021/06/10 11:02:19;;;;;;;;;5.40;5.40;;;;;28.29;52.69;100482.50;5057714;28;8861;-76
2021/06/10 11:05:36;;;;;;;;;4.20;4.20;;;;;27.23;53.95;100493.13;5056466;28;8830;-77
2021/06/10 11:08:57;;;;;;;;;4.40;4.40;;;;;27.66;55.22;100481.25;5057496;28;9442;-79
2021/06/10 11:12:10;;;;;;;;;4.20;4.20;;;;;27.82;54.61;100488.13;5056476;28;8883;-79
2021/06/10 11:15:06;;;;;;;;;6.00;6.00;;;;;27.31;53.49;100491.69;5055295;28;8894;-80
2021/06/10 11:18:02;;;;;;;;;6.00;6.00;;;;;27.04;53.28;100494.09;5050580;28;8942;-80
2021/06/10 11:20:36;;;;;;;;;6.80;6.80;;;;;27.14;54.28;100487.31;5040193;28;8844;-78
2021/06/10 11:23:32;;;;;;;;;6.00;6.00;;;;;26.96;55.16;100479.28;5054998;28;8852;-78
2021/06/10 11:26:45;;;;;;;;;7.60;7.60;;;;;27.23;55.03;100481.78;5042511;28;8851;-78
2021/06/10 11:30:11;;;;;;;;;4.60;4.60;;;;;27.49;52.20;100471.25;5055916;28;8871;-77
2021/06/10 11:33:16;;;;;;;;;3.60;3.60;;;;;27.77;50.60;100465.97;5055113;28;8959;-78
2021/06/10 11:36:12;;;;;;;;;5.00;5.00;;;;;28.09;48.75;100471.41;5042214;28;8955;-79
2021/06/10 11:39:08;;;;;;;;;7.60;7.60;;;;;27.92;49.87;100473.56;5054367;28;8820;-79
2021/06/10 11:42:07;;;;;;;;;9.00;9.00;;;;;28.02;50.66;100463.09;5034466;28;8995;-78
2021/06/10 11:45:07;;;;;;;;;6.60;6.60;;;;;27.70;50.46;100464.94;5057120;28;8916;-79
2021/06/10 11:48:03;;;;;;;;;6.00;6.00;;;;;27.96;49.95;100462.88;5041346;28;8847;-78
2021/06/10 11:50:59;;;;;;;;;6.00;6.00;;;;;27.72;49.18;100469.38;5048935;28;8820;-80
2021/06/10 11:54:14;;;;;;;;;6.00;6.00;;;;;28.11;48.51;100460.34;5043343;28;8856;-79
2021/06/10 11:57:10;;;;;;;;;6.20;6.20;;;;;28.02;49.08;100453.78;5017115;28;8958;-80
2021/06/10 12:00:09;;;;;;;;;6.00;6.00;;;;;28.86;48.42;100452.06;5035127;28;8841;-78
2021/06/10 12:03:09;;;;;;;;;4.60;4.60;;;;;29.05;47.42;100450.94;5040600;28;8860;-76
2021/06/10 12:06:09;;;;;;;;;7.00;7.00;;;;;29.52;48.66;100461.41;5055736;28;8846;-79
2021/06/10 12:09:12;;;;;;;;;5.00;5.00;;;;;28.86;49.30;100451.28;5041254;28;8829;-79
2021/06/10 12:12:08;;;;;;;;;5.60;5.60;;;;;29.19;49.01;100468.75;5041427;28;8947;-79
2021/06/10 12:15:05;;;;;;;;;7.20;7.20;;;;;29.21;48.07;100469.88;5069377;28;8814;-78
2021/06/10 12:18:04;;;;;;;;;8.00;8.00;;;;;29.45;47.51;100466.56;5017681;28;8907;-77
2021/06/10 12:21:03;;;;;;;;;6.60;6.60;;;;;29.36;48.68;100473.78;5046457;28;8834;-78
2021/06/10 12:24:00;;;;;;;;;9.00;9.00;;;;;29.21;47.40;100475.56;5047692;28;9018;-77
2021/06/10 12:26:56;;;;;;;;;9.60;9.60;;;;;29.11;47.41;100467.44;5061744;28;9641;-79
2021/06/10 12:29:52;;;;;;;;;8.20;8.20;;;;;28.80;46.50;100459.59;5075733;28;8948;-78
2021/06/10 12:32:48;;;;;;;;;6.60;6.60;;;;;28.57;45.00;100471.41;5061537;28;8850;-78
2021/06/10 12:35:46;;;;;;;;;9.60;9.60;;;;;28.09;46.00;100460.03;5074712;28;8890;-77
2021/06/10 12:38:45;;;;;;;;;9.20;9.20;;;;;27.85;46.71;100470.16;5075763;28;8822;-77
2021/06/10 12:41:52;;;;;;;;;6.60;6.60;;;;;27.76;45.54;100475.72;5065725;28;8855;-76
2021/06/10 12:44:48;;;;;;;;;6.00;6.00;;;;;27.61;46.48;100472.53;5055301;28;8836;-77
2021/06/10 12:47:44;;;;;;;;;5.00;5.00;;;;;27.70;47.04;100470.63;5065276;28;8845;-78
2021/06/10 12:50:39;;;;;;;;;7.60;7.60;;;;;27.68;48.61;100460.94;5060718;28;8814;-78
2021/06/10 12:53:35;;;;;;;;;9.60;9.60;;;;;28.20;48.98;100460.44;5064587;28;8835;-78
2021/06/10 12:56:41;;;;;;;;;11.80;11.80;;;;;28.71;47.12;100448.94;5054892;28;8857;-76
2021/06/10 12:59:38;;;;;;;;;7.00;7.00;;;;;29.14;47.96;100440.88;5044476;28;8968;-76
2021/06/10 13:02:34;;;;;;;;;7.40;7.40;;;;;29.36;45.15;100447.34;5060068;28;8834;-80
2021/06/10 13:05:30;;;;;;;;;7.80;7.80;;;;;29.59;46.75;100435.47;5059789;28;8834;-78
2021/06/10 13:08:29;;;;;;;;;7.60;7.60;;;;;28.98;47.01;100437.00;5049293;28;8847;-77
2021/06/10 13:11:25;;;;;;;;;8.00;8.00;;;;;29.35;46.09;100440.06;5053016;28;8863;-77
2021/06/10 13:14:21;;;;;;;;;11.00;10.00;;;;;29.58;46.07;100441.63;5019558;28;8853;-76
2021/06/10 13:17:16;;;;;;;;;10.80;10.80;;;;;29.58;46.23;100436.72;5029604;28;9060;-75
2021/06/10 13:20:12;;;;;;;;;8.60;8.60;;;;;30.01;44.91;100426.44;5054385;28;8814;-78
2021/06/10 13:23:19;;;;;;;;;9.60;9.60;;;;;29.72;44.91;100428.88;5056072;28;8979;-74